Tongliao, China
Current Conditions -  °F | °C
As of 10:00 AM on Thursday 23 Oct 2014 (Local Time) from ZYTX Reporting Station
Overcast Overcast  
Wind Chill: 57°   Ceiling: 3300
Heat Index: 57°   Visibility: 5mi
Dew Point: 41°   Wind: 13mph
Humidity: 55%   Direction: 170°S
Pressure: 30"   Gusts: 27mph
Location:  43.62°N, 122.27°E
Report Text: ZYTX 230200Z 17006G12MPS 8000 OVC033 14/05 Q1016 NOSIG
Loading
Personal Weather Stations






























Interactive Weather Map
Tropical Storm Tracking
New forecast layout! Learn more

10-Day Weather Forecast

Advertisements
Track Severe Weather on mobile